Time;durP1;ratioP1;P1;durP2;ratioP2;P2;SDS_P1;SDS_P2;PMS_P1;PMS_P2;Temp;Humidity;BMP_temperature;BMP_pressure;BME280_temperature;BME280_humidity;BME280_pressure;Samples;Min_cycle;Max_cycle;Signal;HPM_P1;HPM_P2
2022/08/25 00:01:50;;;;;;;6.60;6.10;;;21.50;99.90;;;;;;5116347;28;20480;-62
2022/08/25 00:04:18;;;;;;;6.57;5.87;;;21.40;99.90;;;;;;5116642;28;20446;-62
2022/08/25 00:06:45;;;;;;;7.93;6.07;;;21.40;99.90;;;;;;5116619;28;20451;-62
2022/08/25 00:09:14;;;;;;;6.83;5.40;;;21.30;99.90;;;;;;5116550;28;20488;-62
2022/08/25 00:11:43;;;;;;;7.20;6.30;;;21.20;99.90;;;;;;5116377;28;20816;-61
2022/08/25 00:14:13;;;;;;;10.30;6.77;;;21.20;99.90;;;;;;5116261;28;20447;-61
2022/08/25 00:16:40;;;;;;;10.30;6.53;;;21.30;99.90;;;;;;5116691;28;20469;-62
2022/08/25 00:19:09;;;;;;;8.00;6.10;;;21.20;99.90;;;;;;5116347;28;20448;-62
2022/08/25 00:21:35;;;;;;;8.20;6.27;;;21.10;99.90;;;;;;5116172;28;20488;-61
2022/08/25 00:24:03;;;;;;;6.97;6.27;;;21.00;99.90;;;;;;5116223;28;20536;-62
2022/08/25 00:26:30;;;;;;;11.37;6.60;;;21.10;99.90;;;;;;5116020;28;20484;-61
2022/08/25 00:28:58;;;;;;;6.70;6.10;;;21.10;99.90;;;;;;5115943;28;20445;-62
2022/08/25 00:31:25;;;;;;;6.80;6.27;;;21.00;99.90;;;;;;5116145;27;20446;-62
2022/08/25 00:33:52;;;;;;;9.80;7.27;;;21.00;99.90;;;;;;5116167;28;20445;-62
2022/08/25 00:36:19;;;;;;;7.00;6.40;;;20.80;99.90;;;;;;5115838;28;21006;-62
2022/08/25 00:38:48;;;;;;;9.13;6.20;;;20.80;99.90;;;;;;5115877;28;20452;-61
2022/08/25 00:41:19;;;;;;;7.70;6.90;;;20.80;99.90;;;;;;5115678;28;20437;-61
2022/08/25 00:43:49;;;;;;;7.60;6.93;;;20.70;99.90;;;;;;5115711;28;20459;-61
2022/08/25 00:46:20;;;;;;;7.20;6.37;;;20.70;99.90;;;;;;5115014;28;20450;-62
2022/08/25 00:48:51;;;;;;;6.30;5.80;;;20.70;99.90;;;;;;5115515;28;20478;-62
2022/08/25 00:51:23;;;;;;;6.90;6.30;;;20.70;99.90;;;;;;5115676;28;20546;-61
2022/08/25 00:53:50;;;;;;;7.63;6.23;;;20.80;99.90;;;;;;5115573;28;20468;-62
2022/08/25 00:56:18;;;;;;;6.57;6.10;;;20.80;99.90;;;;;;5115703;28;20499;-61
2022/08/25 00:58:45;;;;;;;8.47;6.10;;;20.80;99.90;;;;;;5115652;28;20445;-61
2022/08/25 01:01:11;;;;;;;6.70;6.20;;;20.70;99.90;;;;;;5115601;28;20545;-62
2022/08/25 01:03:39;;;;;;;6.97;6.13;;;20.80;99.90;;;;;;5115223;28;20485;-62
2022/08/25 01:06:09;;;;;;;7.63;6.50;;;20.70;99.90;;;;;;5115359;28;20445;-62
2022/08/25 01:08:35;;;;;;;6.73;6.13;;;20.70;99.90;;;;;;5115166;28;20533;-62
2022/08/25 01:11:05;;;;;;;11.60;6.37;;;20.80;99.90;;;;;;5115383;28;20445;-61
2022/08/25 01:13:36;;;;;;;6.73;6.00;;;20.70;99.90;;;;;;5115174;28;20449;-62
2022/08/25 01:16:03;;;;;;;10.03;6.37;;;20.60;99.90;;;;;;5115235;28;20542;-61
2022/08/25 01:18:44;;;;;;;7.20;6.60;;;20.60;99.90;;;;;;5115011;28;20452;-61
2022/08/25 01:21:12;;;;;;;11.00;6.27;;;20.50;99.90;;;;;;5115011;28;20445;-61
2022/08/25 01:23:40;;;;;;;10.10;6.40;;;20.60;99.90;;;;;;5115042;28;20489;-61
2022/08/25 01:26:11;;;;;;;8.30;6.40;;;20.70;99.90;;;;;;5115061;28;20846;-62
2022/08/25 01:29:19;;;;;;;6.27;5.70;;;20.70;99.90;;;;;;5114986;28;20449;-61
2022/08/25 01:31:26;;;;;;;8.80;6.60;;;20.60;99.90;;;;;;5114659;28;20445;-62
2022/08/25 01:33:53;;;;;;;7.17;6.63;;;20.50;99.90;;;;;;5114737;28;20804;-62
2022/08/25 01:36:22;;;;;;;6.27;5.83;;;20.40;99.90;;;;;;5114814;28;20494;-61
2022/08/25 01:38:49;;;;;;;7.03;6.50;;;20.50;99.90;;;;;;5114788;28;20449;-61
2022/08/25 01:41:20;;;;;;;7.53;6.67;;;20.50;99.90;;;;;;5114697;28;20446;-62
2022/08/25 01:43:46;;;;;;;7.40;6.70;;;20.50;99.90;;;;;;5114498;28;20564;-62
2022/08/25 01:46:13;;;;;;;7.83;7.03;;;20.50;99.90;;;;;;5114457;28;20902;-61
2022/08/25 01:48:39;;;;;;;7.20;6.50;;;20.50;99.90;;;;;;5114346;28;20473;-61
2022/08/25 01:51:06;;;;;;;7.40;6.60;;;20.50;99.90;;;;;;5114548;28;20779;-61
2022/08/25 01:53:34;;;;;;;8.90;8.07;;;20.50;99.90;;;;;;5114439;28;20453;-61
2022/08/25 01:56:07;;;;;;;8.30;6.80;;;20.50;99.90;;;;;;5114444;28;20453;-61
2022/08/25 01:58:36;;;;;;;8.57;6.77;;;20.50;99.90;;;;;;5114248;28;20454;-62
2022/08/25 02:01:05;;;;;;;6.03;5.63;;;20.50;99.90;;;;;;5114735;28;20446;-61
2022/08/25 02:03:36;;;;;;;7.77;6.90;;;20.40;99.90;;;;;;5114136;28;20487;-62
2022/08/25 02:06:04;;;;;;;7.30;6.53;;;20.40;99.90;;;;;;5114326;28;20925;-61
2022/08/25 02:08:30;;;;;;;7.73;6.23;;;20.30;99.90;;;;;;5114137;28;20481;-62
2022/08/25 02:10:58;;;;;;;7.57;6.87;;;20.40;99.90;;;;;;5114466;28;20449;-62
2022/08/25 02:13:25;;;;;;;9.20;8.00;;;20.30;99.90;;;;;;5113763;28;20945;-62
2022/08/25 02:15:55;;;;;;;9.00;8.20;;;20.10;99.90;;;;;;5114032;28;20857;-62
2022/08/25 02:18:21;;;;;;;7.70;7.00;;;20.10;99.90;;;;;;5113931;28;20457;-62
2022/08/25 02:20:48;;;;;;;10.57;8.57;;;20.10;99.90;;;;;;5113899;28;20538;-61
2022/08/25 02:23:15;;;;;;;8.17;7.47;;;20.10;99.90;;;;;;5113718;28;20477;-61
2022/08/25 02:25:43;;;;;;;13.50;6.90;;;20.00;99.90;;;;;;5113700;28;20442;-62
2022/08/25 02:28:11;;;;;;;10.57;7.30;;;20.00;99.90;;;;;;5113883;28;20495;-62
2022/08/25 02:30:39;;;;;;;7.47;6.93;;;19.90;99.90;;;;;;5113812;28;20449;-62
2022/08/25 02:33:05;;;;;;;8.57;7.00;;;19.90;99.90;;;;;;5114009;28;20489;-61
2022/08/25 02:35:32;;;;;;;8.53;7.70;;;19.80;99.90;;;;;;5113700;28;20445;-61
2022/08/25 02:37:58;;;;;;;8.53;7.70;;;19.70;99.90;;;;;;5113525;28;20446;-62
2022/08/25 02:40:25;;;;;;;7.87;7.17;;;19.70;99.90;;;;;;5113548;28;20556;-61
2022/08/25 02:42:52;;;;;;;8.93;8.20;;;19.70;99.90;;;;;;5113593;28;20568;-61
2022/08/25 02:45:19;;;;;;;10.73;8.60;;;19.80;99.90;;;;;;5113562;28;20652;-61
2022/08/25 02:47:46;;;;;;;10.30;8.47;;;19.80;99.90;;;;;;5113400;28;20524;-61
2022/08/25 02:50:13;;;;;;;8.07;7.27;;;19.80;99.90;;;;;;5113416;28;20631;-62
2022/08/25 02:52:40;;;;;;;10.23;7.10;;;19.80;99.90;;;;;;5113239;28;20483;-62
2022/08/25 02:55:11;;;;;;;10.60;7.87;;;19.80;99.90;;;;;;5113293;28;20821;-61
2022/08/25 02:57:38;;;;;;;8.57;7.77;;;19.90;99.90;;;;;;5113511;28;20450;-61
2022/08/25 03:00:05;;;;;;;11.50;8.50;;;19.90;99.90;;;;;;5113389;28;20528;-62
2022/08/25 03:02:33;;;;;;;10.47;7.63;;;19.90;99.90;;;;;;5113189;28;20470;-61
2022/08/25 03:05:00;;;;;;;8.93;8.03;;;19.80;99.90;;;;;;5113257;28;20443;-61
2022/08/25 03:07:26;;;;;;;8.53;7.83;;;19.70;99.90;;;;;;5113090;28;20955;-61
2022/08/25 03:09:53;;;;;;;9.50;7.80;;;19.70;99.90;;;;;;5116216;28;20892;-61
2022/08/25 03:12:21;;;;;;;8.87;7.40;;;19.70;99.90;;;;;;5120169;28;20536;-61
2022/08/25 03:14:48;;;;;;;9.10;7.90;;;19.80;99.90;;;;;;5119933;28;20944;-62
2022/08/25 03:17:14;;;;;;;11.33;8.20;;;19.80;99.90;;;;;;5120000;28;20448;-61
2022/08/25 03:19:42;;;;;;;9.20;8.10;;;19.80;99.90;;;;;;5119789;28;20491;-61
2022/08/25 03:22:09;;;;;;;7.93;7.33;;;19.70;99.90;;;;;;5120013;28;20449;-62
2022/08/25 03:24:35;;;;;;;11.47;9.00;;;19.70;99.90;;;;;;5119983;28;20445;-62
2022/08/25 03:27:01;;;;;;;9.13;8.13;;;19.80;99.90;;;;;;5119880;28;20948;-62
2022/08/25 03:29:31;;;;;;;15.37;8.03;;;19.70;99.90;;;;;;5119908;28;20533;-61
2022/08/25 03:31:59;;;;;;;11.60;8.07;;;19.70;99.90;;;;;;5119833;27;20240;-61
2022/08/25 03:34:28;;;;;;;12.47;9.17;;;19.70;99.90;;;;;;5119721;28;20936;-61
2022/08/25 03:36:57;;;;;;;14.93;8.73;;;19.60;99.90;;;;;;5119997;28;20442;-61
2022/08/25 03:39:25;;;;;;;9.67;8.30;;;19.60;99.90;;;;;;5119882;28;20441;-61
2022/08/25 03:41:52;;;;;;;9.57;8.43;;;19.70;99.90;;;;;;5119744;28;20468;-61
2022/08/25 03:44:19;;;;;;;10.27;7.40;;;19.70;99.90;;;;;;5119623;28;20867;-61
2022/08/25 03:46:49;;;;;;;14.10;8.33;;;19.60;99.90;;;;;;5119640;28;20782;-61
2022/08/25 03:49:19;;;;;;;9.10;8.20;;;19.50;99.90;;;;;;5119444;28;20477;-61
2022/08/25 03:51:47;;;;;;;10.30;8.63;;;19.50;99.90;;;;;;5119845;28;20928;-62
2022/08/25 03:54:17;;;;;;;9.67;8.73;;;19.50;99.90;;;;;;5119664;28;20822;-61
2022/08/25 03:56:44;;;;;;;14.03;8.30;;;19.50;99.90;;;;;;5119680;28;20459;-61
2022/08/25 03:59:11;;;;;;;8.60;7.90;;;19.50;99.90;;;;;;5119460;28;20488;-61
2022/08/25 04:01:39;;;;;;;8.73;7.90;;;19.40;99.90;;;;;;5119442;28;20530;-61
2022/08/25 04:04:07;;;;;;;14.77;9.30;;;19.30;99.90;;;;;;5119656;28;20480;-61
2022/08/25 04:06:34;;;;;;;9.10;8.17;;;19.20;99.90;;;;;;5119687;28;20651;-61
2022/08/25 04:09:01;;;;;;;11.77;9.23;;;19.20;99.90;;;;;;5119936;28;20448;-61
2022/08/25 04:11:29;;;;;;;9.77;8.77;;;19.20;99.90;;;;;;5119444;28;21004;-61
2022/08/25 04:13:57;;;;;;;14.10;8.60;;;19.30;99.90;;;;;;5119311;28;20445;-62
2022/08/25 04:16:27;;;;;;;10.00;9.03;;;19.30;99.90;;;;;;5119643;27;20502;-61
2022/08/25 04:18:54;;;;;;;10.23;8.80;;;19.40;99.90;;;;;;5119543;28;20449;-62
2022/08/25 04:21:22;;;;;;;9.23;8.30;;;19.40;99.90;;;;;;5116747;28;20904;-61
2022/08/25 04:23:49;;;;;;;9.47;7.83;;;19.50;99.90;;;;;;5116040;28;20481;-61
2022/08/25 04:26:19;;;;;;;11.70;8.70;;;19.50;99.90;;;;;;5116044;28;20537;-61
2022/08/25 04:28:47;;;;;;;15.47;8.97;;;19.60;99.90;;;;;;5116046;28;20859;-62
2022/08/25 04:31:15;;;;;;;8.57;7.77;;;19.70;99.90;;;;;;5116162;28;20446;-61
2022/08/25 04:33:42;;;;;;;9.00;8.10;;;19.80;99.90;;;;;;5116046;28;20452;-61
2022/08/25 04:36:10;;;;;;;9.87;8.87;;;19.90;99.90;;;;;;5115954;28;20442;-61
2022/08/25 04:38:37;;;;;;;9.53;8.53;;;19.90;99.90;;;;;;5115892;28;20448;-61
2022/08/25 04:41:05;;;;;;;9.67;8.50;;;20.00;99.90;;;;;;5115641;28;20913;-61
2022/08/25 04:43:35;;;;;;;8.83;8.00;;;20.10;99.90;;;;;;5115822;28;20488;-61
2022/08/25 04:46:07;;;;;;;8.37;7.60;;;20.20;99.90;;;;;;5115809;28;20446;-62
2022/08/25 04:48:34;;;;;;;10.73;9.63;;;20.20;99.90;;;;;;5115551;28;20474;-61
2022/08/25 04:51:04;;;;;;;10.90;8.17;;;20.00;99.90;;;;;;5115516;28;20869;-61
2022/08/25 04:53:31;;;;;;;9.20;8.40;;;20.10;99.90;;;;;;5115372;28;20452;-62
2022/08/25 04:55:58;;;;;;;10.87;9.20;;;20.10;99.90;;;;;;5115573;28;20442;-61
2022/08/25 04:58:24;;;;;;;13.60;8.67;;;20.20;99.90;;;;;;5115534;28;20441;-62
2022/08/25 05:00:51;;;;;;;10.77;9.77;;;20.10;99.90;;;;;;5115409;28;20457;-61
2022/08/25 05:03:19;;;;;;;9.60;8.60;;;20.00;99.90;;;;;;5115194;28;20886;-61
2022/08/25 05:05:46;;;;;;;9.80;8.30;;;19.90;99.90;;;;;;5115307;28;20449;-61
2022/08/25 05:08:12;;;;;;;8.83;8.03;;;19.70;99.90;;;;;;5115201;28;20446;-61
2022/08/25 05:10:40;;;;;;;12.23;8.50;;;19.70;99.90;;;;;;5115172;28;20450;-61
2022/08/25 05:13:06;;;;;;;10.50;9.70;;;19.70;99.90;;;;;;5115240;28;20885;-61
2022/08/25 05:15:51;;;;;;;11.87;9.80;;;19.50;99.90;;;;;;5115190;28;20533;-61
2022/08/25 05:18:21;;;;;;;11.50;9.90;;;19.30;99.90;;;;;;5115144;28;20477;-61
2022/08/25 05:20:48;;;;;;;12.77;10.50;;;19.30;99.90;;;;;;5114864;28;20956;-61
2022/08/25 05:23:15;;;;;;;13.10;11.07;;;19.30;99.90;;;;;;5114999;28;20505;-61
2022/08/25 05:25:43;;;;;;;15.23;11.50;;;19.20;99.90;;;;;;5115060;28;20446;-61
2022/08/25 05:28:10;;;;;;;13.93;12.47;;;19.10;99.90;;;;;;5114930;28;20442;-61
2022/08/25 05:30:38;;;;;;;17.00;13.07;;;19.00;99.90;;;;;;5114836;28;20449;-61
2022/08/25 05:33:06;;;;;;;16.03;14.30;;;19.00;99.90;;;;;;5114340;28;20442;-61
2022/08/25 05:35:34;;;;;;;16.43;13.00;;;19.00;99.90;;;;;;5114814;28;20437;-61
2022/08/25 05:38:01;;;;;;;17.07;14.87;;;19.10;99.90;;;;;;5114692;28;20446;-61
2022/08/25 05:40:27;;;;;;;16.67;14.90;;;19.00;99.90;;;;;;5114776;28;20499;-61
2022/08/25 05:42:54;;;;;;;17.33;14.17;;;19.10;99.90;;;;;;5114321;28;20451;-61
2022/08/25 05:45:20;;;;;;;27.73;15.23;;;19.10;99.90;;;;;;5114488;28;20442;-61
2022/08/25 05:47:47;;;;;;;20.03;15.90;;;19.10;99.90;;;;;;5114054;28;20470;-61
2022/08/25 05:50:14;;;;;;;20.37;17.10;;;19.10;99.90;;;;;;5114500;28;20450;-61
2022/08/25 05:52:42;;;;;;;19.77;17.90;;;19.00;99.90;;;;;;5114288;28;20809;-61
2022/08/25 05:55:09;;;;;;;22.00;17.83;;;18.90;99.90;;;;;;5114286;28;20858;-61
2022/08/25 05:57:36;;;;;;;22.77;18.40;;;19.00;99.90;;;;;;5114151;28;20445;-61
2022/08/25 06:00:03;;;;;;;22.80;19.50;;;19.00;99.90;;;;;;5114194;28;20475;-61
2022/08/25 06:02:43;;;;;;;21.47;19.27;;;19.10;99.90;;;;;;5114061;28;20450;-61
2022/08/25 06:05:12;;;;;;;21.67;19.03;;;19.10;99.90;;;;;;5114278;28;20489;-61
2022/08/25 06:07:39;;;;;;;21.37;19.00;;;19.10;99.90;;;;;;5114210;28;20437;-61
2022/08/25 06:10:10;;;;;;;21.50;19.37;;;19.10;99.90;;;;;;5114051;28;20446;-61
2022/08/25 06:12:37;;;;;;;21.53;19.10;;;19.10;99.90;;;;;;5113890;28;20518;-62
2022/08/25 06:15:05;;;;;;;20.23;18.23;;;19.10;99.90;;;;;;5113947;28;20453;-61
2022/08/25 06:17:31;;;;;;;21.43;19.30;;;19.10;99.90;;;;;;5113965;28;20748;-62
2022/08/25 06:19:59;;;;;;;22.97;19.47;;;19.10;99.90;;;;;;5113866;28;20537;-61
2022/08/25 06:22:25;;;;;;;21.57;19.27;;;19.20;99.90;;;;;;5113711;28;20979;-61
2022/08/25 06:24:52;;;;;;;22.60;20.13;;;19.20;99.90;;;;;;5113389;28;20504;-61
2022/08/25 06:27:20;;;;;;;21.50;19.30;;;19.20;99.90;;;;;;5113571;28;20446;-61
2022/08/25 06:29:47;;;;;;;21.67;19.20;;;19.30;99.90;;;;;;5113606;28;20947;-61
2022/08/25 06:32:13;;;;;;;22.93;19.20;;;19.30;99.90;;;;;;5113627;28;20556;-62
2022/08/25 06:34:40;;;;;;;24.87;20.33;;;19.40;99.90;;;;;;5113570;28;20464;-61
2022/08/25 06:37:06;;;;;;;25.53;21.33;;;19.50;99.90;;;;;;5113561;28;20446;-61
2022/08/25 06:39:33;;;;;;;21.73;18.53;;;19.60;99.90;;;;;;5113440;28;20477;-61
2022/08/25 06:42:00;;;;;;;21.27;18.90;;;19.60;99.90;;;;;;5113410;28;20855;-61
2022/08/25 06:44:28;;;;;;;23.80;20.13;;;19.70;99.90;;;;;;5112936;28;20538;-61
2022/08/25 06:46:54;;;;;;;24.40;20.40;;;19.60;99.90;;;;;;5113511;28;20449;-61
2022/08/25 06:49:21;;;;;;;26.60;21.03;;;19.70;99.90;;;;;;5113093;28;20840;-61
2022/08/25 06:51:48;;;;;;;28.13;21.10;;;19.70;99.90;;;;;;5113328;28;20925;-61
2022/08/25 06:54:15;;;;;;;27.80;20.93;;;19.80;99.90;;;;;;5113221;28;20548;-62
2022/08/25 06:56:42;;;;;;;35.43;23.50;;;19.70;99.90;;;;;;5113176;28;20438;-61
2022/08/25 06:59:09;;;;;;;28.47;23.00;;;19.80;99.90;;;;;;5113440;28;20807;-61
2022/08/25 07:01:37;;;;;;;31.37;23.87;;;19.90;99.90;;;;;;5113315;28;20446;-61
2022/08/25 07:04:05;;;;;;;34.23;25.17;;;19.80;99.90;;;;;;5113072;28;20476;-61
2022/08/25 07:06:35;;;;;;;28.33;24.20;;;19.90;99.90;;;;;;5112982;28;20560;-61
2022/08/25 07:09:02;;;;;;;36.17;26.20;;;19.90;99.90;;;;;;5112737;28;20445;-61
2022/08/25 07:11:32;;;;;;;41.03;28.63;;;19.80;99.90;;;;;;5113334;28;20488;-61
2022/08/25 07:14:00;;;;;;;36.20;27.20;;;19.90;99.90;;;;;;5113122;28;20449;-61
2022/08/25 07:16:27;;;;;;;39.27;26.30;;;20.10;99.90;;;;;;5113209;28;20965;-61
2022/08/25 07:18:56;;;;;;;36.30;27.17;;;20.00;99.90;;;;;;5113173;28;20452;-61
2022/08/25 07:21:22;;;;;;;39.30;29.57;;;20.00;99.90;;;;;;5112918;28;20450;-61
2022/08/25 07:23:49;;;;;;;48.10;31.80;;;20.10;99.90;;;;;;5112815;28;20708;-61
2022/08/25 07:26:18;;;;;;;38.13;29.50;;;20.10;99.90;;;;;;5113014;28;20944;-61
2022/08/25 07:28:45;;;;;;;38.87;30.20;;;20.10;99.90;;;;;;5113046;28;20481;-61
2022/08/25 07:31:12;;;;;;;36.17;29.70;;;20.00;99.90;;;;;;5112883;28;20451;-60
2022/08/25 07:35:13;;;;;;;44.87;31.00;;;19.90;99.90;;;;;;5110218;28;20451;-60
2022/08/25 07:36:25;;;;;;;44.87;31.47;;;20.10;99.90;;;;;;5097218;28;20450;-60
2022/08/25 07:38:52;;;;;;;44.80;30.80;;;20.20;99.90;;;;;;5108730;28;20492;-60
2022/08/25 07:41:19;;;;;;;37.90;29.73;;;20.20;99.90;;;;;;5105252;28;20446;-59
2022/08/25 07:43:46;;;;;;;42.17;32.20;;;20.20;99.90;;;;;;5095870;28;20859;-60
2022/08/25 07:46:12;;;;;;;41.90;32.00;;;20.30;99.90;;;;;;5092434;28;20467;-63
2022/08/25 07:48:39;;;;;;;41.43;33.73;;;20.30;99.90;;;;;;5092337;28;20561;-61
2022/08/25 07:51:08;;;;;;;44.70;36.53;;;20.40;99.90;;;;;;5100203;28;20939;-62
2022/08/25 07:53:36;;;;;;;39.90;32.20;;;20.40;99.90;;;;;;5103408;28;20188;-63
2022/08/25 07:56:09;;;;;;;38.70;31.40;;;20.50;99.90;;;;;;5099245;28;20455;-63
2022/08/25 07:58:35;;;;;;;36.83;31.03;;;20.50;99.90;;;;;;5095203;28;20478;-62
2022/08/25 08:01:01;;;;;;;38.93;34.70;;;20.50;99.90;;;;;;5097105;28;20446;-63
2022/08/25 08:03:28;;;;;;;42.23;35.13;;;20.70;99.90;;;;;;5095449;28;20485;-61
2022/08/25 08:05:56;;;;;;;42.37;35.43;;;20.70;99.90;;;;;;5097422;28;20461;-61
2022/08/25 08:08:22;;;;;;;40.43;34.33;;;20.60;99.90;;;;;;5102954;28;20447;-61
2022/08/25 08:10:50;;;;;;;40.67;35.23;;;20.50;99.90;;;;;;5106145;28;20799;-61
2022/08/25 08:13:16;;;;;;;37.37;33.33;;;20.70;99.90;;;;;;5096393;28;20801;-60
2022/08/25 08:15:43;;;;;;;38.23;33.17;;;20.80;99.90;;;;;;5106879;28;20445;-60
2022/08/25 08:18:10;;;;;;;38.80;33.53;;;20.70;99.90;;;;;;5107300;28;20450;-63
2022/08/25 08:20:37;;;;;;;42.97;38.27;;;20.70;99.90;;;;;;5107367;28;20442;-62
2022/08/25 08:23:04;;;;;;;39.70;35.00;;;20.70;99.90;;;;;;5101752;28;20802;-62
2022/08/25 08:25:31;;;;;;;40.33;35.97;;;20.80;99.90;;;;;;5112039;28;20538;-62
2022/08/25 08:27:58;;;;;;;39.13;35.30;;;20.90;99.90;;;;;;5112341;27;20450;-60
2022/08/25 08:30:25;;;;;;;37.67;33.90;;;20.90;99.90;;;;;;5115519;28;20449;-64
2022/08/25 08:32:51;;;;;;;36.43;32.70;;;21.00;99.90;;;;;;5104038;27;20461;-60
2022/08/25 08:35:18;;;;;;;36.73;32.63;;;20.90;99.90;;;;;;5109796;28;20455;-59
2022/08/25 08:37:46;;;;;;;37.23;33.43;;;20.80;99.90;;;;;;5111630;28;20446;-59
2022/08/25 08:40:16;;;;;;;28.40;25.57;;;20.80;99.90;;;;;;5115561;28;20449;-56
2022/08/25 08:42:53;;;;;;;30.77;27.63;;;20.90;99.90;;;;;;5102330;27;20454;-56
2022/08/25 08:45:29;;;;;;;31.77;28.77;;;21.00;99.90;;;;;;5096506;28;20589;-65
2022/08/25 08:48:14;;;;;;;36.60;32.80;;;21.10;99.90;;;;;;5100448;28;20474;-60
2022/08/25 08:50:48;;;;;;;36.80;31.90;;;21.20;99.90;;;;;;5095182;28;20453;-61
2022/08/25 08:53:22;;;;;;;32.80;29.80;;;21.30;99.90;;;;;;5094932;28;20446;-60
2022/08/25 08:55:51;;;;;;;34.00;30.83;;;21.40;99.90;;;;;;5100284;28;20448;-59
2022/08/25 08:58:20;;;;;;;36.90;33.40;;;21.30;99.90;;;;;;5103145;28;20441;-63
2022/08/25 09:00:53;;;;;;;35.40;32.20;;;21.30;99.90;;;;;;5115061;28;20536;-60
2022/08/25 09:03:31;;;;;;;31.57;28.50;;;21.30;99.90;;;;;;5096926;28;20485;-59
2022/08/25 09:06:02;;;;;;;35.07;31.43;;;21.30;99.90;;;;;;5094538;28;20474;-61
2022/08/25 09:08:29;;;;;;;36.97;33.30;;;21.40;99.90;;;;;;5099793;28;20472;-67
2022/08/25 09:11:03;;;;;;;34.20;30.53;;;21.40;99.90;;;;;;5102117;28;20446;-64
2022/08/25 09:13:46;;;;;;;29.70;26.90;;;21.60;99.90;;;;;;5093619;28;20484;-64
2022/08/25 09:19:22;;;;;;;29.87;26.93;;;21.80;99.90;;;;;;5095246;28;20848;-62
2022/08/25 09:21:57;;;;;;;33.17;29.60;;;21.80;99.90;;;;;;5106723;28;20445;-61
2022/08/25 09:24:38;;;;;;;31.83;28.93;;;21.90;99.90;;;;;;5099825;28;20833;-61
2022/08/25 09:27:15;;;;;;;30.07;27.30;;;22.20;99.90;;;;;;5095589;28;20809;-63
2022/08/25 09:29:53;;;;;;;29.80;26.70;;;22.40;99.90;;;;;;5095148;28;20461;-62
2022/08/25 09:32:22;;;;;;;29.67;27.00;;;22.60;99.90;;;;;;5109637;28;20449;-62
2022/08/25 09:34:51;;;;;;;27.47;24.70;;;22.60;99.90;;;;;;5095471;28;20454;-64
2022/08/25 09:37:17;;;;;;;24.87;22.63;;;22.50;99.90;;;;;;5094446;28;20557;-65
2022/08/25 09:39:44;;;;;;;28.57;26.10;;;22.80;99.90;;;;;;5095825;28;20457;-62
2022/08/25 09:42:10;;;;;;;30.50;25.57;;;22.60;99.90;;;;;;5102511;28;20445;-58
2022/08/25 09:44:42;;;;;;;25.73;23.33;;;22.40;99.90;;;;;;5104228;28;20487;-59
2022/08/25 09:47:20;;;;;;;23.80;21.90;;;22.40;99.90;;;;;;5107403;28;20538;-60
2022/08/25 09:49:50;;;;;;;23.20;21.07;;;22.60;99.90;;;;;;5112072;28;20510;-59
2022/08/25 09:52:36;;;;;;;20.73;18.73;;;22.60;99.90;;;;;;5109075;28;20458;-60
2022/08/25 09:55:27;;;;;;;19.43;17.40;;;22.70;99.90;;;;;;5097294;28;20852;-61
2022/08/25 09:57:55;;;;;;;17.00;15.40;;;22.70;99.90;;;;;;5111241;28;20448;-61
2022/08/25 10:00:25;;;;;;;17.93;16.13;;;23.10;99.90;;;;;;5114338;28;20446;-60
2022/08/25 10:03:06;;;;;;;13.90;12.57;;;23.20;99.90;;;;;;5095118;28;20442;-60
2022/08/25 10:05:37;;;;;;;11.93;10.80;;;23.50;99.90;;;;;;5094579;28;20503;-60
2022/08/25 10:08:11;;;;;;;10.70;9.80;;;23.40;99.90;;;;;;5093735;28;20930;-60
2022/08/25 10:10:44;;;;;;;10.07;9.20;;;23.50;99.90;;;;;;5093140;28;20458;-60
2022/08/25 10:13:17;;;;;;;14.13;8.73;;;23.50;99.90;;;;;;5096998;28;20909;-60
2022/08/25 10:15:44;;;;;;;12.70;8.00;;;23.60;99.90;;;;;;5093561;28;20817;-61
2022/08/25 10:18:23;;;;;;;8.43;7.50;;;23.90;99.90;;;;;;5102929;28;20446;-61
2022/08/25 10:21:06;;;;;;;11.20;8.67;;;24.20;99.90;;;;;;5106867;28;20485;-61
2022/08/25 10:23:36;;;;;;;10.53;9.13;;;23.80;99.90;;;;;;5093108;28;20486;-62
2022/08/25 10:26:15;;;;;;;8.90;8.00;;;23.90;99.90;;;;;;5092347;28;20490;-63
2022/08/25 10:29:03;;;;;;;9.17;8.27;;;23.70;99.90;;;;;;5099343;28;20552;-60
2022/08/25 10:31:35;;;;;;;14.00;7.70;;;23.90;99.90;;;;;;5094875;28;20457;-63
2022/08/25 10:34:19;;;;;;;17.90;8.73;;;24.10;99.90;;;;;;5096652;28;20473;-64
2022/08/25 10:36:59;;;;;;;9.10;7.90;;;23.90;99.90;;;;;;5113373;28;20442;-63
2022/08/25 10:39:37;;;;;;;12.13;6.90;;;24.00;99.90;;;;;;5113254;28;20448;-63
2022/08/25 10:42:18;;;;;;;9.07;8.27;;;24.30;99.90;;;;;;5113619;28;20445;-59
2022/08/25 10:47:50;;;;;;;9.63;7.50;;;24.70;99.90;;;;;;5101336;28;20481;-64
2022/08/25 10:50:27;;;;;;;8.53;7.20;;;25.00;99.90;;;;;;5093131;28;20450;-64
2022/08/25 10:53:13;;;;;;;9.63;7.60;;;25.30;99.90;;;;;;5093503;28;20445;-61
2022/08/25 10:55:44;;;;;;;9.53;6.57;;;25.40;99.90;;;;;;5093323;28;20445;-59
2022/08/25 10:58:19;;;;;;;18.83;7.07;;;25.70;99.90;;;;;;5092642;28;20450;-60
2022/08/25 11:00:55;;;;;;;8.47;7.67;;;25.70;99.90;;;;;;5092915;28;20446;-64
2022/08/25 11:03:41;;;;;;;10.50;7.07;;;25.70;99.90;;;;;;5094646;28;20943;-58
2022/08/25 11:06:14;;;;;;;12.60;7.37;;;26.00;99.90;;;;;;5092216;28;20481;-59
2022/08/25 11:08:47;;;;;;;11.17;7.67;;;26.00;99.90;;;;;;5092200;28;20848;-58
2022/08/25 11:11:24;;;;;;;15.53;8.30;;;25.70;99.90;;;;;;5092455;28;20453;-59
2022/08/25 11:13:57;;;;;;;9.70;8.53;;;25.60;99.90;;;;;;5097806;28;20445;-61
2022/08/25 11:16:34;;;;;;;9.70;7.27;;;25.40;99.90;;;;;;5108060;28;20541;-61
2022/08/25 11:19:07;;;;;;;10.57;7.93;;;25.30;99.90;;;;;;5095375;28;20816;-59
2022/08/25 11:21:42;;;;;;;10.30;8.37;;;25.30;99.90;;;;;;5092446;28;20486;-62
2022/08/25 11:24:22;;;;;;;10.57;8.07;;;25.40;99.90;;;;;;5092843;28;20810;-58
2022/08/25 11:26:55;;;;;;;11.60;8.60;;;25.50;99.90;;;;;;5093556;28;20481;-61
2022/08/25 11:29:25;;;;;;;8.67;7.83;;;25.70;99.90;;;;;;5091756;28;20466;-59
2022/08/25 11:31:53;;;;;;;13.43;8.03;;;26.00;99.90;;;;;;5095574;28;20456;-59
2022/08/25 11:34:21;;;;;;;10.93;8.07;;;25.90;99.90;;;;;;5108139;28;20456;-62
2022/08/25 11:36:52;;;;;;;8.60;7.80;;;25.60;99.90;;;;;;5096192;28;20454;-58
2022/08/25 11:39:32;;;;;;;13.00;8.30;;;25.50;99.90;;;;;;5097698;28;20452;-62
2022/08/25 11:42:14;;;;;;;9.07;8.17;;;25.70;99.90;;;;;;5098045;28;20446;-64
2022/08/25 11:44:50;;;;;;;15.03;7.70;;;25.80;99.90;;;;;;5095113;28;20817;-64
2022/08/25 11:47:34;;;;;;;9.60;7.10;;;26.30;99.90;;;;;;5101656;28;20456;-58
2022/08/25 11:50:03;;;;;;;8.60;7.73;;;26.60;99.90;;;;;;5097738;28;20450;-60
2022/08/25 11:52:45;;;;;;;10.33;7.47;;;26.60;99.90;;;;;;5094345;28;20893;-59
2022/08/25 11:55:16;;;;;;;10.50;7.40;;;26.70;99.90;;;;;;5095577;28;20527;-59
2022/08/25 11:57:44;;;;;;;13.97;7.93;;;27.10;99.90;;;;;;5100630;28;20454;-58
2022/08/25 12:00:14;;;;;;;14.30;7.87;;;27.20;99.90;;;;;;5115509;28;20471;-61
2022/08/25 12:02:43;;;;;;;8.53;6.60;;;26.90;99.90;;;;;;5116292;28;20448;-58
2022/08/25 12:05:32;;;;;;;15.87;7.80;;;26.80;99.90;;;;;;5116589;28;20473;-59
2022/08/25 12:11:01;;;;;;;11.77;7.87;;;26.70;99.90;;;;;;5109062;28;20436;-60
2022/08/25 12:13:44;;;;;;;38.90;8.70;;;26.60;99.90;;;;;;5109672;28;20481;-60
2022/08/25 12:16:38;;;;;;;10.67;7.30;;;26.40;99.90;;;;;;5113725;28;20873;-60
2022/08/25 12:19:28;;;;;;;11.20;7.00;;;26.60;99.90;;;;;;5115810;28;20441;-60
2022/08/25 12:21:57;;;;;;;9.47;6.83;;;26.30;99.90;;;;;;5095929;28;20507;-60
2022/08/25 12:24:50;;;;;;;8.13;7.20;;;26.30;99.90;;;;;;5095357;28;20542;-60
2022/08/25 12:27:25;;;;;;;9.40;7.30;;;26.50;99.90;;;;;;5094256;28;20457;-60
2022/08/25 12:29:57;;;;;;;10.80;6.73;;;26.90;99.90;;;;;;5095360;28;20472;-60
2022/08/25 12:32:40;;;;;;;11.40;7.07;;;27.30;99.90;;;;;;5095554;28;20447;-60
2022/08/25 12:35:23;;;;;;;11.97;7.00;;;27.40;99.90;;;;;;5095481;28;20457;-60
2022/08/25 12:38:05;;;;;;;12.37;6.80;;;27.30;99.90;;;;;;5095449;28;20754;-60
2022/08/25 12:40:37;;;;;;;8.13;7.00;;;27.30;99.90;;;;;;5095467;28;20537;-60
2022/08/25 12:43:11;;;;;;;12.40;6.83;;;26.90;99.90;;;;;;5094312;28;20447;-60
2022/08/25 12:45:44;;;;;;;11.13;7.43;;;26.70;99.90;;;;;;5095181;28;20551;-60
2022/08/25 12:48:42;;;;;;;12.53;6.70;;;26.40;99.90;;;;;;5095161;28;20561;-62
2022/08/25 12:51:16;;;;;;;10.47;7.20;;;26.30;99.90;;;;;;5095153;28;20447;-62
2022/08/25 12:53:46;;;;;;;9.03;6.63;;;26.60;99.90;;;;;;5095392;28;20446;-60
2022/08/25 12:56:24;;;;;;;13.53;6.67;;;26.90;99.90;;;;;;5095236;28;20454;-62
2022/08/25 12:58:56;;;;;;;10.03;6.57;;;27.30;99.90;;;;;;5095020;28;20485;-60
2022/08/25 13:01:33;;;;;;;17.80;7.77;;;27.40;99.90;;;;;;5095013;28;20985;-61